Time;durP1;ratioP1;P1;durP2;ratioP2;P2;SDS_P1;SDS_P2;PMS_P1;PMS_P2;Temp;Humidity;BMP_temperature;BMP_pressure;BME280_temperature;BME280_humidity;BME280_pressure;Samples;Min_cycle;Max_cycle;Signal;HPM_P1;HPM_P2
2023/06/10 00:02:07;;;;;;;9.50;9.20;;;18.60;99.90;;;;;;5113281;27;20456;-67
2023/06/10 00:04:34;;;;;;;9.70;9.40;;;18.50;99.90;;;;;;5104731;27;20472;-67
2023/06/10 00:07:01;;;;;;;9.50;9.20;;;18.50;99.90;;;;;;5128012;27;20456;-67
2023/06/10 00:09:29;;;;;;;9.20;8.90;;;18.60;99.90;;;;;;5102306;27;20961;-68
2023/06/10 00:11:56;;;;;;;9.73;9.33;;;18.60;99.90;;;;;;5113519;27;20469;-67
2023/06/10 00:14:23;;;;;;;10.27;9.87;;;18.60;99.90;;;;;;5129062;27;20514;-67
2023/06/10 00:16:50;;;;;;;9.60;9.30;;;18.60;99.90;;;;;;5126997;27;20479;-67
2023/06/10 00:19:18;;;;;;;10.10;9.70;;;18.50;99.90;;;;;;5107156;27;20467;-67
2023/06/10 00:21:45;;;;;;;9.53;9.23;;;18.50;99.90;;;;;;5113172;27;20453;-66
2023/06/10 00:24:12;;;;;;;9.53;9.23;;;18.60;99.90;;;;;;5098765;27;20816;-67
2023/06/10 00:26:41;;;;;;;9.40;9.10;;;18.70;99.90;;;;;;5120608;27;20548;-67
2023/06/10 00:29:08;;;;;;;9.77;9.37;;;18.70;99.90;;;;;;5098358;28;20477;-67
2023/06/10 00:31:35;;;;;;;9.40;9.10;;;18.80;99.90;;;;;;5112141;27;20456;-67
2023/06/10 00:34:03;;;;;;;9.40;9.10;;;18.70;99.90;;;;;;5116686;27;20548;-67
2023/06/10 00:36:30;;;;;;;9.87;9.57;;;18.60;99.90;;;;;;5096909;28;20485;-67
2023/06/10 00:38:57;;;;;;;9.60;9.30;;;18.50;99.90;;;;;;5119768;28;20837;-67
2023/06/10 00:41:26;;;;;;;9.53;9.23;;;18.50;99.90;;;;;;5113588;28;21227;-68
2023/06/10 00:43:55;;;;;;;9.83;9.53;;;18.40;99.90;;;;;;5113482;28;21041;-67
2023/06/10 00:46:24;;;;;;;9.87;9.57;;;18.40;99.90;;;;;;5100071;28;20473;-67
2023/06/10 00:48:50;;;;;;;9.80;9.50;;;18.40;99.90;;;;;;5097941;28;20811;-66
2023/06/10 00:51:18;;;;;;;9.67;9.37;;;18.40;99.90;;;;;;5112391;28;20452;-67
2023/06/10 00:53:45;;;;;;;9.97;9.67;;;18.40;99.90;;;;;;5104191;28;20676;-67
2023/06/10 00:56:15;;;;;;;10.70;10.30;;;18.30;99.90;;;;;;5096863;28;20527;-68
2023/06/10 00:58:41;;;;;;;9.60;9.30;;;18.20;99.90;;;;;;5118417;28;20512;-67
2023/06/10 01:01:12;;;;;;;9.83;9.53;;;18.20;99.90;;;;;;5113888;28;20950;-67
2023/06/10 01:03:39;;;;;;;9.97;9.67;;;18.10;99.90;;;;;;5109328;28;20848;-67
2023/06/10 01:06:17;;;;;;;10.80;10.40;;;18.10;99.90;;;;;;5090744;28;20453;-67
2023/06/10 01:08:52;;;;;;;10.63;10.23;;;18.10;99.90;;;;;;5115363;27;20525;-67
2023/06/10 01:11:24;;;;;;;9.83;9.53;;;18.20;99.90;;;;;;5112469;27;20454;-67
2023/06/10 01:13:52;;;;;;;9.80;9.50;;;18.10;99.90;;;;;;5121993;27;20469;-67
2023/06/10 01:16:21;;;;;;;9.83;9.53;;;18.10;99.90;;;;;;5106566;27;20581;-67
2023/06/10 01:18:48;;;;;;;9.83;9.53;;;18.00;99.90;;;;;;5109975;27;20874;-68
2023/06/10 01:21:21;;;;;;;9.63;9.33;;;18.00;99.90;;;;;;5105191;28;20537;-66
2023/06/10 01:23:48;;;;;;;10.50;10.10;;;18.00;99.90;;;;;;5124486;27;20469;-67
2023/06/10 01:26:16;;;;;;;9.90;9.60;;;17.90;99.90;;;;;;5097560;27;20898;-66
2023/06/10 01:28:49;;;;;;;9.70;9.40;;;17.90;99.90;;;;;;5116621;27;20738;-67
2023/06/10 01:31:21;;;;;;;10.87;10.47;;;17.90;99.90;;;;;;5114566;27;20453;-67
2023/06/10 01:33:52;;;;;;;10.10;9.80;;;17.80;99.90;;;;;;5118903;27;20453;-67
2023/06/10 01:36:24;;;;;;;9.93;9.63;;;17.70;99.90;;;;;;5097875;27;20493;-67
2023/06/10 01:38:53;;;;;;;10.43;10.03;;;17.70;99.90;;;;;;5112994;27;20468;-67
2023/06/10 01:41:22;;;;;;;10.23;9.83;;;17.70;99.90;;;;;;5122944;27;20461;-67
2023/06/10 01:43:49;;;;;;;10.80;10.40;;;17.60;99.90;;;;;;5116611;27;20483;-67
2023/06/10 01:46:19;;;;;;;12.63;12.13;;;17.60;99.90;;;;;;5101176;28;20948;-68
2023/06/10 01:48:46;;;;;;;10.80;10.40;;;17.60;99.90;;;;;;5101899;27;20551;-67
2023/06/10 01:51:13;;;;;;;9.60;9.30;;;17.60;99.90;;;;;;5120295;27;20456;-67
2023/06/10 01:53:41;;;;;;;9.93;9.63;;;17.60;99.90;;;;;;5115841;27;20462;-67
2023/06/10 01:56:08;;;;;;;10.63;10.23;;;17.60;99.90;;;;;;5101418;27;20712;-67
2023/06/10 01:58:35;;;;;;;9.80;9.50;;;17.50;99.90;;;;;;5101943;27;20826;-66
2023/06/10 02:01:02;;;;;;;10.37;9.97;;;17.60;99.90;;;;;;5111589;27;20467;-67
2023/06/10 02:03:29;;;;;;;11.13;10.73;;;17.60;99.90;;;;;;5100827;27;20462;-67
2023/06/10 02:05:56;;;;;;;9.40;9.10;;;17.60;99.90;;;;;;5102586;27;20879;-67
2023/06/10 02:08:23;;;;;;;9.67;9.37;;;17.60;99.90;;;;;;5114406;27;20460;-66
2023/06/10 02:10:52;;;;;;;9.43;9.13;;;17.60;99.90;;;;;;5109090;27;20974;-68
2023/06/10 02:13:18;;;;;;;9.80;9.50;;;17.50;99.90;;;;;;5119533;27;20460;-67
2023/06/10 02:15:45;;;;;;;10.20;9.80;;;17.50;99.90;;;;;;5102056;27;20515;-67
2023/06/10 02:18:13;;;;;;;9.53;9.23;;;17.50;99.90;;;;;;5122322;27;20461;-68
2023/06/10 02:20:40;;;;;;;9.70;9.40;;;17.40;99.90;;;;;;5115223;27;20789;-68
2023/06/10 02:23:06;;;;;;;10.27;9.87;;;17.30;99.90;;;;;;5117602;27;20460;-67
2023/06/10 02:25:33;;;;;;;10.13;9.80;;;17.30;99.90;;;;;;5101555;27;20588;-67
2023/06/10 02:28:03;;;;;;;10.30;9.93;;;17.40;99.90;;;;;;5105842;27;20547;-68
2023/06/10 02:30:30;;;;;;;10.13;9.73;;;17.30;99.90;;;;;;5122178;27;20453;-67
2023/06/10 02:32:56;;;;;;;9.40;9.10;;;17.40;99.90;;;;;;5106740;27;20489;-66
2023/06/10 02:35:24;;;;;;;10.60;10.20;;;17.50;99.90;;;;;;5105989;27;20521;-67
2023/06/10 02:37:53;;;;;;;9.10;8.80;;;17.50;99.90;;;;;;5104587;27;20464;-66
2023/06/10 02:40:22;;;;;;;9.37;9.07;;;17.50;99.90;;;;;;5098151;27;20462;-67
2023/06/10 02:42:49;;;;;;;9.20;8.90;;;17.50;99.90;;;;;;5111767;27;20469;-67
2023/06/10 02:45:18;;;;;;;9.43;9.13;;;17.40;99.90;;;;;;5097104;27;20938;-66
2023/06/10 02:47:45;;;;;;;9.60;9.30;;;17.30;99.90;;;;;;5109000;27;20479;-67
2023/06/10 02:50:12;;;;;;;9.60;9.30;;;17.30;99.90;;;;;;5101190;27;20550;-67
2023/06/10 02:52:39;;;;;;;9.07;8.77;;;17.30;99.90;;;;;;5117516;27;20457;-67
2023/06/10 02:55:07;;;;;;;10.40;10.00;;;17.30;99.90;;;;;;5105855;27;20476;-67
2023/06/10 02:57:35;;;;;;;9.40;9.10;;;17.30;99.90;;;;;;5099992;27;21035;-67
2023/06/10 03:00:08;;;;;;;10.37;9.77;;;17.40;99.90;;;;;;5105443;27;20464;-67
2023/06/10 03:02:39;;;;;;;8.80;8.50;;;17.40;99.90;;;;;;5110840;27;20467;-67
2023/06/10 03:05:09;;;;;;;9.07;8.77;;;17.50;99.90;;;;;;5105204;27;21030;-67
2023/06/10 03:07:37;;;;;;;8.83;8.53;;;17.40;99.90;;;;;;5107826;27;20489;-66
2023/06/10 03:10:05;;;;;;;9.60;9.30;;;17.40;99.90;;;;;;5102247;27;20448;-67
2023/06/10 03:12:32;;;;;;;10.90;10.50;;;17.40;99.90;;;;;;5093769;27;20836;-67
2023/06/10 03:14:58;;;;;;;9.63;9.33;;;17.30;99.90;;;;;;5102228;27;20971;-67
2023/06/10 03:17:25;;;;;;;10.13;9.77;;;17.30;99.90;;;;;;5098477;27;20473;-67
2023/06/10 03:19:53;;;;;;;10.70;10.30;;;17.30;99.90;;;;;;5116037;27;20509;-67
2023/06/10 03:22:20;;;;;;;9.67;9.27;;;17.20;99.90;;;;;;5103453;27;20719;-67
2023/06/10 03:24:50;;;;;;;9.70;9.40;;;17.20;99.90;;;;;;5096971;27;20449;-67
2023/06/10 03:27:16;;;;;;;10.23;9.83;;;17.20;99.90;;;;;;5122151;27;20460;-67
2023/06/10 03:29:45;;;;;;;10.23;9.83;;;17.20;99.90;;;;;;5124278;27;20460;-67
2023/06/10 03:32:13;;;;;;;10.90;10.00;;;17.20;99.90;;;;;;5100537;28;20495;-67
2023/06/10 03:34:42;;;;;;;10.33;9.93;;;17.20;99.90;;;;;;5109309;27;20510;-67
2023/06/10 03:37:10;;;;;;;10.00;9.70;;;17.20;99.90;;;;;;5104398;27;20493;-67
2023/06/10 03:39:36;;;;;;;9.70;9.40;;;17.20;99.90;;;;;;5100895;27;20480;-66
2023/06/10 03:42:04;;;;;;;9.47;9.17;;;17.20;99.90;;;;;;5107642;27;20460;-67
2023/06/10 03:44:31;;;;;;;9.93;9.53;;;17.30;99.90;;;;;;5122423;27;20469;-67
2023/06/10 03:46:59;;;;;;;10.30;9.90;;;17.20;99.90;;;;;;5108796;28;20476;-67
2023/06/10 03:49:28;;;;;;;9.57;9.27;;;17.20;99.90;;;;;;5108701;27;20476;-67
2023/06/10 03:51:55;;;;;;;10.50;10.10;;;17.20;99.90;;;;;;5095644;27;20461;-67
2023/06/10 03:54:24;;;;;;;9.00;8.70;;;17.30;99.90;;;;;;5095341;28;20516;-66
2023/06/10 03:56:52;;;;;;;10.20;9.67;;;17.20;99.90;;;;;;5098861;27;20486;-67
2023/06/10 03:59:19;;;;;;;9.37;9.07;;;17.20;99.90;;;;;;5119924;27;20449;-67
2023/06/10 04:01:46;;;;;;;9.37;9.07;;;17.20;99.90;;;;;;5103546;28;21272;-67
2023/06/10 04:04:16;;;;;;;9.57;9.27;;;17.10;99.90;;;;;;5111658;27;20493;-67
2023/06/10 04:06:43;;;;;;;9.73;9.43;;;17.10;99.90;;;;;;5115623;27;20541;-67
2023/06/10 04:09:10;;;;;;;10.30;9.90;;;17.10;99.90;;;;;;5122216;27;20464;-67
2023/06/10 04:11:38;;;;;;;9.80;9.50;;;17.10;99.90;;;;;;5088114;27;20595;-68
2023/06/10 04:14:05;;;;;;;12.10;11.50;;;17.20;99.90;;;;;;5104061;27;20461;-67
2023/06/10 04:16:32;;;;;;;10.57;10.17;;;17.30;99.90;;;;;;5109769;28;20497;-67
2023/06/10 04:18:59;;;;;;;9.60;9.30;;;17.30;99.90;;;;;;5107844;27;20468;-67
2023/06/10 04:21:26;;;;;;;9.80;9.50;;;17.30;99.90;;;;;;5121663;27;20807;-68
2023/06/10 04:23:54;;;;;;;9.77;9.47;;;17.40;99.90;;;;;;5103712;28;20511;-67
2023/06/10 04:26:21;;;;;;;9.87;9.57;;;17.50;99.90;;;;;;5100364;27;20538;-68
2023/06/10 04:28:49;;;;;;;9.73;9.43;;;17.50;99.90;;;;;;5102584;27;20460;-68
2023/06/10 04:31:16;;;;;;;10.33;9.93;;;17.60;99.90;;;;;;5108322;27;20464;-67
2023/06/10 04:33:43;;;;;;;10.80;10.40;;;17.70;99.90;;;;;;5113198;27;20473;-67
2023/06/10 04:36:10;;;;;;;10.37;9.97;;;17.80;99.90;;;;;;5107757;28;20546;-67
2023/06/10 04:38:37;;;;;;;11.00;10.60;;;17.90;99.90;;;;;;5117074;27;20471;-67
2023/06/10 04:41:04;;;;;;;10.00;9.70;;;18.00;99.90;;;;;;5090879;28;20453;-67
2023/06/10 04:43:31;;;;;;;10.13;9.77;;;18.10;99.90;;;;;;5117487;28;20460;-67
2023/06/10 04:45:59;;;;;;;10.50;10.10;;;18.10;99.90;;;;;;5115275;28;20456;-68
2023/06/10 04:48:26;;;;;;;10.10;9.77;;;18.20;99.90;;;;;;5114909;28;20522;-68
2023/06/10 04:50:53;;;;;;;10.43;10.03;;;18.30;99.90;;;;;;5096434;28;20460;-68
2023/06/10 04:53:20;;;;;;;10.40;10.00;;;18.40;99.90;;;;;;5105259;28;20445;-68
2023/06/10 04:55:48;;;;;;;10.07;9.70;;;18.50;99.90;;;;;;5099895;28;20504;-68
2023/06/10 04:58:15;;;;;;;9.80;9.50;;;18.60;99.90;;;;;;5097840;28;20999;-67
2023/06/10 05:00:43;;;;;;;10.20;9.80;;;18.60;99.90;;;;;;5093415;28;20464;-68
2023/06/10 05:03:13;;;;;;;11.40;11.00;;;18.80;99.90;;;;;;5094744;28;20461;-68
2023/06/10 05:05:40;;;;;;;10.93;10.53;;;18.90;99.90;;;;;;5103753;28;20792;-66
2023/06/10 05:08:08;;;;;;;12.07;11.50;;;19.10;99.90;;;;;;5096222;28;20473;-66
2023/06/10 05:10:35;;;;;;;10.83;10.43;;;19.10;99.90;;;;;;5093820;28;20910;-67
2023/06/10 05:13:02;;;;;;;12.27;11.57;;;19.40;99.90;;;;;;5100264;28;20453;-67
2023/06/10 05:15:30;;;;;;;10.30;9.90;;;19.50;99.90;;;;;;5101569;28;20508;-66
2023/06/10 05:17:58;;;;;;;11.37;10.97;;;19.60;99.90;;;;;;5106068;28;20595;-66
2023/06/10 05:20:28;;;;;;;11.40;11.00;;;19.70;99.90;;;;;;5096703;28;20489;-66
2023/06/10 05:22:55;;;;;;;11.17;10.77;;;19.80;99.90;;;;;;5102434;28;20469;-67
2023/06/10 05:25:22;;;;;;;11.93;11.43;;;20.00;99.90;;;;;;5100968;28;20453;-67
2023/06/10 05:27:50;;;;;;;11.17;10.77;;;20.00;99.90;;;;;;5104103;28;20474;-67
2023/06/10 05:30:18;;;;;;;11.63;11.23;;;20.10;99.90;;;;;;5100101;28;20454;-67
2023/06/10 05:32:46;;;;;;;11.30;10.90;;;20.10;99.90;;;;;;5117178;28;20498;-67
2023/06/10 05:35:15;;;;;;;11.23;10.83;;;20.20;99.90;;;;;;5113820;28;20461;-67
2023/06/10 05:37:44;;;;;;;12.17;11.67;;;20.30;99.90;;;;;;5093935;28;20486;-67
2023/06/10 05:40:12;;;;;;;12.20;11.70;;;20.40;99.90;;;;;;5100269;28;20556;-67
2023/06/10 05:42:38;;;;;;;12.50;12.00;;;20.50;99.90;;;;;;5099508;28;20461;-67
2023/06/10 05:45:07;;;;;;;11.60;11.20;;;20.60;99.90;;;;;;5111742;28;20476;-68
2023/06/10 05:47:34;;;;;;;13.00;12.50;;;20.60;99.90;;;;;;5097818;28;22621;-67
2023/06/10 05:50:02;;;;;;;12.47;11.97;;;20.70;99.90;;;;;;5100635;28;20458;-67
2023/06/10 05:52:29;;;;;;;11.90;11.50;;;20.70;99.90;;;;;;5096302;27;20498;-67
2023/06/10 05:54:59;;;;;;;13.00;12.50;;;20.80;99.90;;;;;;5097500;27;20825;-67
2023/06/10 05:57:26;;;;;;;12.73;12.23;;;20.80;99.90;;;;;;5104550;27;20549;-66
2023/06/10 05:59:53;;;;;;;13.33;12.73;;;20.90;99.90;;;;;;5109381;27;20504;-67
2023/06/10 06:02:20;;;;;;;12.70;12.10;;;21.10;99.90;;;;;;5103242;27;20956;-68
2023/06/10 06:04:47;;;;;;;13.20;12.60;;;21.20;99.90;;;;;;5108674;27;20866;-67
2023/06/10 06:07:13;;;;;;;11.50;11.10;;;21.30;99.90;;;;;;5105318;27;20457;-67
2023/06/10 06:09:40;;;;;;;11.73;11.33;;;21.50;99.90;;;;;;5099556;27;20457;-67
2023/06/10 06:12:10;;;;;;;12.07;11.60;;;21.60;99.90;;;;;;5096052;27;20458;-67
2023/06/10 06:14:39;;;;;;;12.80;12.20;;;21.70;99.90;;;;;;5105366;27;20460;-68
2023/06/10 06:17:07;;;;;;;13.17;12.60;;;21.80;99.90;;;;;;5113203;27;20489;-67
2023/06/10 06:19:34;;;;;;;12.73;12.23;;;22.00;99.90;;;;;;5110636;27;20771;-68
2023/06/10 06:22:01;;;;;;;12.93;12.43;;;22.20;99.90;;;;;;5105192;27;20458;-67
2023/06/10 06:24:28;;;;;;;13.73;13.13;;;22.10;99.90;;;;;;5096645;27;20474;-67
2023/06/10 06:26:54;;;;;;;14.77;14.10;;;22.10;99.90;;;;;;5098009;27;20516;-67
2023/06/10 06:29:22;;;;;;;13.97;13.27;;;22.20;99.90;;;;;;5113282;27;20843;-66
2023/06/10 06:31:50;;;;;;;13.73;13.13;;;22.30;99.90;;;;;;5097377;27;20464;-67
2023/06/10 06:34:16;;;;;;;13.87;13.27;;;22.40;99.90;;;;;;5107867;27;20895;-66
2023/06/10 06:36:43;;;;;;;14.40;13.80;;;22.60;99.90;;;;;;5104934;27;20832;-67
2023/06/10 06:39:10;;;;;;;13.70;13.10;;;22.60;99.90;;;;;;5119501;27;20452;-67
2023/06/10 06:41:37;;;;;;;14.13;13.53;;;22.60;99.90;;;;;;5115451;27;20458;-66
2023/06/10 06:44:04;;;;;;;15.93;15.10;;;22.60;99.90;;;;;;5094551;27;20466;-67
2023/06/10 06:46:33;;;;;;;15.13;14.33;;;22.70;99.90;;;;;;5103475;27;20461;-66
2023/06/10 06:49:00;;;;;;;14.40;13.70;;;22.80;99.90;;;;;;5099727;27;20527;-67
2023/06/10 06:51:27;;;;;;;14.23;13.63;;;23.00;99.90;;;;;;5108848;27;20959;-67
2023/06/10 06:53:58;;;;;;;17.70;16.83;;;23.10;99.90;;;;;;5099626;27;20967;-67
2023/06/10 06:56:26;;;;;;;15.33;14.60;;;23.20;99.90;;;;;;5100415;27;20489;-66
2023/06/10 06:58:52;;;;;;;13.47;12.97;;;23.10;99.90;;;;;;5109616;27;20460;-66
2023/06/10 07:01:20;;;;;;;15.27;14.57;;;23.30;99.90;;;;;;5092695;27;20484;-67
2023/06/10 07:03:50;;;;;;;13.93;13.33;;;23.30;99.90;;;;;;5115486;27;20873;-67
2023/06/10 07:06:18;;;;;;;14.87;14.17;;;23.60;99.90;;;;;;5118443;27;20461;-67
2023/06/10 07:08:44;;;;;;;14.17;13.57;;;23.60;99.90;;;;;;5106770;27;20869;-67
2023/06/10 07:11:12;;;;;;;13.83;13.23;;;23.70;99.90;;;;;;5102340;27;20976;-67
2023/06/10 07:13:39;;;;;;;14.10;13.50;;;23.90;99.90;;;;;;5096813;27;20477;-67
2023/06/10 07:16:06;;;;;;;14.33;13.73;;;24.20;99.90;;;;;;5095416;28;20492;-67
2023/06/10 07:18:33;;;;;;;14.03;13.43;;;24.40;99.90;;;;;;5106550;27;20470;-67
2023/06/10 07:21:02;;;;;;;14.07;13.47;;;24.40;99.90;;;;;;5096707;27;20462;-67
2023/06/10 07:23:29;;;;;;;14.33;13.73;;;24.50;99.90;;;;;;5106951;27;20475;-67
2023/06/10 07:25:57;;;;;;;14.00;13.40;;;24.50;99.90;;;;;;5109562;27;20462;-68
2023/06/10 07:28:24;;;;;;;13.30;12.80;;;24.60;99.90;;;;;;5090338;27;20826;-67
2023/06/10 07:30:52;;;;;;;14.53;13.83;;;25.00;99.90;;;;;;5093960;27;20456;-68
2023/06/10 07:33:20;;;;;;;14.67;13.97;;;25.20;99.90;;;;;;5097015;27;20458;-67
2023/06/10 07:35:47;;;;;;;14.10;13.50;;;25.50;99.90;;;;;;5112782;27;20496;-68
2023/06/10 07:38:15;;;;;;;14.33;13.73;;;25.60;99.90;;;;;;5109722;27;20569;-67
2023/06/10 07:40:42;;;;;;;14.90;14.10;;;25.60;99.90;;;;;;5098323;27;20457;-67
2023/06/10 07:43:11;;;;;;;14.90;14.20;;;25.70;99.90;;;;;;5101546;27;20473;-67
2023/06/10 07:45:40;;;;;;;15.00;14.30;;;25.70;99.90;;;;;;5106636;27;20465;-67
2023/06/10 07:48:07;;;;;;;14.33;13.73;;;25.90;99.90;;;;;;5096121;28;20466;-67
2023/06/10 07:50:34;;;;;;;14.57;13.97;;;26.00;99.90;;;;;;5093002;27;21048;-67
2023/06/10 07:53:01;;;;;;;14.67;14.07;;;26.10;99.90;;;;;;5096700;27;20465;-68
2023/06/10 07:55:30;;;;;;;14.30;13.70;;;26.30;99.90;;;;;;5092767;27;20465;-67
2023/06/10 07:57:57;;;;;;;14.47;13.87;;;26.50;99.90;;;;;;5094848;28;20485;-68
2023/06/10 08:00:25;;;;;;;14.17;13.57;;;26.70;99.90;;;;;;5101143;27;20550;-67
2023/06/10 08:02:53;;;;;;;15.90;15.20;;;27.20;99.90;;;;;;5103057;27;20453;-68
2023/06/10 08:05:20;;;;;;;16.00;15.10;;;27.70;99.90;;;;;;5104856;27;20468;-67
2023/06/10 08:07:47;;;;;;;15.00;14.10;;;28.30;99.90;;;;;;5104210;27;20968;-68
2023/06/10 08:10:15;;;;;;;15.13;14.43;;;28.90;99.90;;;;;;5108285;27;20464;-68
2023/06/10 08:12:43;;;;;;;15.10;14.50;;;29.20;99.90;;;;;;5090769;27;20461;-67
2023/06/10 08:15:11;;;;;;;16.10;15.33;;;29.80;99.90;;;;;;5119335;27;23659;-68
2023/06/10 08:17:39;;;;;;;15.20;14.50;;;30.40;99.90;;;;;;5120268;27;20503;-67
2023/06/10 08:20:07;;;;;;;15.93;15.23;;;30.60;99.90;;;;;;5111500;27;20549;-68
2023/06/10 08:22:34;;;;;;;15.33;14.73;;;30.70;99.90;;;;;;5099407;28;20469;-68
2023/06/10 08:25:01;;;;;;;14.77;14.17;;;30.00;99.90;;;;;;5101057;27;20752;-68
2023/06/10 08:27:28;;;;;;;16.77;15.43;;;30.30;98.70;;;;;;5115661;27;20460;-68
2023/06/10 08:29:56;;;;;;;14.97;14.37;;;30.70;98.80;;;;;;5100197;27;21021;-67
2023/06/10 08:32:24;;;;;;;14.53;13.93;;;30.90;96.80;;;;;;5120002;27;20452;-67
2023/06/10 08:34:51;;;;;;;15.10;14.50;;;31.60;95.70;;;;;;5109382;27;20553;-69
2023/06/10 08:37:18;;;;;;;14.57;13.97;;;32.50;94.30;;;;;;5103230;28;20484;-68
2023/06/10 08:39:46;;;;;;;14.77;14.07;;;32.40;92.00;;;;;;5099922;28;20469;-68
2023/06/10 08:42:23;;;;;;;15.80;15.00;;;32.20;91.30;;;;;;5096427;28;21265;-68
2023/06/10 08:44:53;;;;;;;15.03;14.43;;;32.30;89.10;;;;;;5097993;28;20469;-68
2023/06/10 08:47:25;;;;;;;15.77;15.07;;;32.00;89.50;;;;;;5102802;28;20472;-67
2023/06/10 08:49:53;;;;;;;14.53;13.93;;;31.60;87.60;;;;;;5109456;28;20543;-67
2023/06/10 08:52:21;;;;;;;13.80;13.30;;;31.60;87.30;;;;;;5116021;28;20468;-68
2023/06/10 08:54:52;;;;;;;15.67;14.97;;;31.70;86.00;;;;;;5107816;28;20449;-68
2023/06/10 08:57:21;;;;;;;14.83;14.20;;;31.70;86.30;;;;;;5101991;28;20837;-68
2023/06/10 08:59:49;;;;;;;17.43;16.43;;;32.00;86.20;;;;;;5105265;28;20475;-68
2023/06/10 09:02:19;;;;;;;14.30;13.70;;;32.30;84.60;;;;;;5108753;28;20828;-68
2023/06/10 09:04:48;;;;;;;14.50;13.90;;;32.40;85.40;;;;;;5121506;28;20460;-68
2023/06/10 09:07:17;;;;;;;14.60;14.00;;;32.90;86.70;;;;;;5109970;28;20456;-68
2023/06/10 09:09:44;;;;;;;14.80;14.20;;;33.60;84.80;;;;;;5102325;28;20450;-68
2023/06/10 09:12:11;;;;;;;15.30;14.07;;;32.90;84.40;;;;;;5095571;28;20466;-68
2023/06/10 09:14:38;;;;;;;13.70;13.20;;;32.70;84.70;;;;;;5106754;28;20515;-68
2023/06/10 09:17:07;;;;;;;14.73;13.93;;;32.80;86.70;;;;;;5095172;28;20581;-68
2023/06/10 09:19:33;;;;;;;14.30;13.70;;;33.10;84.70;;;;;;5099880;28;20457;-68
2023/06/10 09:22:02;;;;;;;14.97;14.37;;;33.40;84.40;;;;;;5118032;28;20460;-68
2023/06/10 09:24:29;;;;;;;14.40;13.90;;;33.60;81.40;;;;;;5114452;28;20456;-68
2023/06/10 09:27:03;;;;;;;15.00;14.40;;;34.20;83.20;;;;;;5109209;27;20465;-68
2023/06/10 09:29:30;;;;;;;14.60;13.93;;;34.50;81.40;;;;;;5110729;27;20453;-67
2023/06/10 09:31:58;;;;;;;15.00;14.40;;;34.10;79.10;;;;;;5093363;27;20453;-68
2023/06/10 09:34:27;;;;;;;13.90;13.40;;;33.50;77.40;;;;;;5108924;27;20849;-69
2023/06/10 09:36:55;;;;;;;14.30;13.70;;;33.30;78.20;;;;;;5105648;27;20480;-68
2023/06/10 09:39:25;;;;;;;14.53;13.93;;;33.10;79.10;;;;;;5123369;27;20462;-68
2023/06/10 09:41:51;;;;;;;15.53;14.73;;;33.90;77.00;;;;;;5111878;27;20484;-69
2023/06/10 09:44:20;;;;;;;16.37;15.57;;;34.60;76.00;;;;;;5097888;27;21143;-68
2023/06/10 09:46:48;;;;;;;14.47;13.87;;;33.50;75.70;;;;;;5111266;27;20448;-68
2023/06/10 09:49:14;;;;;;;14.87;14.30;;;34.50;75.30;;;;;;5102155;27;20863;-68
2023/06/10 09:51:52;;;;;;;15.00;14.40;;;35.20;73.70;;;;;;5109589;27;20459;-69
2023/06/10 09:54:19;;;;;;;15.30;14.70;;;35.10;72.40;;;;;;5094961;28;20456;-69
2023/06/10 09:56:51;;;;;;;15.10;14.47;;;35.40;73.60;;;;;;5094460;27;20456;-68
2023/06/10 09:59:31;;;;;;;16.10;15.07;;;35.00;70.90;;;;;;5106414;27;21025;-68
2023/06/10 10:02:00;;;;;;;15.60;14.90;;;34.80;69.90;;;;;;5113013;27;20478;-69
2023/06/10 10:04:28;;;;;;;14.67;14.07;;;34.90;69.50;;;;;;5104572;27;20506;-68
2023/06/10 10:06:55;;;;;;;14.67;14.13;;;34.90;70.60;;;;;;5125090;27;20954;-68
2023/06/10 10:09:23;;;;;;;15.07;14.40;;;34.70;71.20;;;;;;5120320;27;20799;-68
2023/06/10 10:11:55;;;;;;;14.67;14.07;;;35.20;71.20;;;;;;5110437;27;20533;-68
2023/06/10 10:14:24;;;;;;;15.53;14.83;;;35.90;69.10;;;;;;5105548;27;20508;-68
2023/06/10 10:16:54;;;;;;;15.93;15.13;;;36.00;64.90;;;;;;5113151;27;20859;-68
2023/06/10 10:19:29;;;;;;;13.70;13.20;;;35.60;64.70;;;;;;5094500;28;20879;-68
2023/06/10 10:22:02;;;;;;;15.40;14.70;;;35.90;67.10;;;;;;5106233;27;20528;-68
2023/06/10 10:24:34;;;;;;;14.20;13.70;;;35.70;65.50;;;;;;5105959;27;20956;-68
2023/06/10 10:27:11;;;;;;;15.63;14.93;;;36.00;64.20;;;;;;5113284;27;20560;-68
2023/06/10 10:29:40;;;;;;;14.37;13.77;;;35.90;64.00;;;;;;5113258;27;20503;-68
2023/06/10 10:32:08;;;;;;;14.00;13.40;;;36.90;63.40;;;;;;5104889;28;20457;-68
2023/06/10 10:34:44;;;;;;;16.03;15.30;;;36.40;62.20;;;;;;5104012;27;20473;-68
2023/06/10 10:37:10;;;;;;;15.90;15.13;;;36.60;60.30;;;;;;5123551;27;20998;-69
2023/06/10 10:39:38;;;;;;;15.07;14.40;;;36.30;59.40;;;;;;5106141;27;20465;-68
2023/06/10 10:42:09;;;;;;;13.90;13.40;;;35.90;60.60;;;;;;5101069;27;20962;-68
2023/06/10 10:44:37;;;;;;;14.50;13.60;;;35.70;60.50;;;;;;5107808;27;20487;-69
2023/06/10 10:47:04;;;;;;;13.33;12.83;;;36.30;58.70;;;;;;5112319;27;20460;-69
2023/06/10 10:49:33;;;;;;;13.70;13.20;;;36.50;59.10;;;;;;5112315;27;20522;-69
2023/06/10 10:52:01;;;;;;;13.73;13.23;;;36.40;58.40;;;;;;5120097;27;20472;-68
2023/06/10 10:54:33;;;;;;;13.23;12.73;;;36.20;58.80;;;;;;5096215;27;20499;-67
2023/06/10 10:57:19;;;;;;;13.67;13.17;;;36.10;58.70;;;;;;5122047;27;20905;-69
2023/06/10 10:59:55;;;;;;;13.90;13.40;;;36.40;60.40;;;;;;5107112;27;20457;-68
2023/06/10 11:02:35;;;;;;;14.20;13.63;;;37.30;58.30;;;;;;5098609;27;20956;-69
2023/06/10 11:05:02;;;;;;;15.03;14.40;;;36.80;58.30;;;;;;5111616;27;20522;-68
2023/06/10 11:07:32;;;;;;;15.10;14.50;;;36.20;58.50;;;;;;5126765;27;20452;-68
2023/06/10 11:10:00;;;;;;;14.33;13.73;;;36.30;56.50;;;;;;5114642;27;20468;-69
2023/06/10 11:12:49;;;;;;;14.00;13.50;;;36.70;56.20;;;;;;5091920;28;20545;-69
2023/06/10 11:15:20;;;;;;;16.43;15.53;;;37.10;55.90;;;;;;5101338;27;20481;-68
2023/06/10 11:18:13;;;;;;;14.10;13.60;;;38.10;55.40;;;;;;5122426;27;20541;-68
2023/06/10 11:20:45;;;;;;;15.27;14.57;;;37.70;54.00;;;;;;5107652;27;20453;-69
2023/06/10 11:23:26;;;;;;;13.60;13.00;;;38.40;54.20;;;;;;5123223;27;20513;-69
2023/06/10 11:26:20;;;;;;;13.63;13.03;;;38.50;54.90;;;;;;5124511;27;20984;-69
2023/06/10 11:29:07;;;;;;;14.93;14.03;;;38.00;54.40;;;;;;5098082;28;20999;-69
2023/06/10 11:31:40;;;;;;;14.10;13.50;;;37.90;52.80;;;;;;5097160;27;20462;-69
2023/06/10 11:34:08;;;;;;;13.17;12.67;;;37.80;53.60;;;;;;5105666;27;20454;-69
2023/06/10 11:36:40;;;;;;;13.70;13.20;;;37.90;52.60;;;;;;5106172;27;20793;-68
2023/06/10 11:39:08;;;;;;;13.40;12.90;;;38.40;52.50;;;;;;5115670;27;20495;-69
2023/06/10 11:41:36;;;;;;;13.37;12.87;;;39.00;52.30;;;;;;5104286;27;20501;-69
2023/06/10 11:44:08;;;;;;;13.93;13.40;;;39.30;51.70;;;;;;5108280;27;20946;-68
2023/06/10 11:46:35;;;;;;;13.53;12.83;;;38.70;51.00;;;;;;5102534;27;20807;-69
2023/06/10 11:49:03;;;;;;;13.43;12.93;;;38.30;51.70;;;;;;5113567;27;20465;-68
2023/06/10 11:51:33;;;;;;;13.70;13.20;;;38.00;51.60;;;;;;5105850;27;20663;-69
2023/06/10 11:54:00;;;;;;;13.63;13.13;;;37.80;51.60;;;;;;5097426;28;20507;-69
2023/06/10 11:56:28;;;;;;;14.50;13.90;;;37.30;52.30;;;;;;5103981;27;20551;-68
2023/06/10 11:58:57;;;;;;;15.13;14.53;;;37.10;52.70;;;;;;5108454;28;20497;-68
2023/06/10 12:01:26;;;;;;;14.90;14.30;;;36.10;52.30;;;;;;5123414;27;20821;-68
2023/06/10 12:04:04;;;;;;;15.17;14.53;;;34.80;54.20;;;;;;5099135;27;20458;-69
2023/06/10 12:06:41;;;;;;;14.30;13.80;;;34.60;55.20;;;;;;5101633;27;20862;-68
2023/06/10 12:09:08;;;;;;;15.07;14.47;;;34.80;55.40;;;;;;5097787;27;20461;-68
2023/06/10 12:11:34;;;;;;;15.30;14.70;;;34.60;55.20;;;;;;5102359;27;20895;-69
2023/06/10 12:14:03;;;;;;;14.43;13.90;;;34.20;54.40;;;;;;5118987;27;20462;-68
2023/06/10 12:16:31;;;;;;;15.10;14.50;;;33.80;55.30;;;;;;5117759;27;21024;-69
2023/06/10 12:19:04;;;;;;;14.13;13.63;;;34.00;55.40;;;;;;5102598;27;20488;-69
2023/06/10 12:21:35;;;;;;;15.00;14.40;;;34.00;55.20;;;;;;5123014;27;20539;-69
2023/06/10 12:24:07;;;;;;;16.10;15.50;;;34.10;55.60;;;;;;5106720;27;20468;-68
2023/06/10 12:26:42;;;;;;;14.70;14.10;;;34.40;55.60;;;;;;5105702;28;20492;-68
2023/06/10 12:29:24;;;;;;;14.00;13.50;;;34.50;56.70;;;;;;5126405;27;20476;-68
2023/06/10 12:31:57;;;;;;;15.43;14.73;;;35.20;56.40;;;;;;5103300;27;20471;-69
2023/06/10 12:34:30;;;;;;;14.83;14.23;;;36.20;55.80;;;;;;5099174;27;20467;-68
2023/06/10 12:36:57;;;;;;;13.67;13.17;;;36.80;54.90;;;;;;5121174;27;20476;-69
2023/06/10 12:39:24;;;;;;;15.00;14.40;;;37.00;54.10;;;;;;5121136;27;21016;-69
2023/06/10 12:41:52;;;;;;;14.40;13.80;;;37.00;53.80;;;;;;5099208;28;20457;-68